Terminal Aerodrome Forecast
Issued by NWS

Home | Current Version | Previous Version | Text Only | Print | Product List | Glossary On
Versions: 1 2 3 4 5 6 7 8 9 10 11 12 13 14 15 16
000
FTUS46 KLOX 261100 RRA
TAFOXR
TAF
KOXR 261139Z 2612/2712 08006KT P6SM VCSH OVC180
     FM261400 06010KT P6SM SCT120 OVC180
     FM261700 07012KT P6SM BKN050 OVC120
     FM270000 17006KT P6SM VCSH OVC100
     FM270200 VRB05KT P6SM VCSH OVC100
      TEMPO 2703/2707 P6SM -RA OVC100=

USA.gov is the U.S. government's official web portal to all federal, state and local government web resources and services.